テルアビブ / ベン・グリオン の空港の天気 - METARとTAF

ベン・グリオン国際空港(テルアビブ) ( LLBG / TLV ) - イスラエル ロード / テルアビブ
飛行場実況気象(Metar)
観測時間02/28 02:20 IST (02/28 00:20 UTC)
風向・風速不定 1m/s
視程10km以上
天気現象
なし
気温13℃
湿度72%
気圧1010hPa
METARLLBG 280020Z VRB01KT CAVOK 13/08 Q1010 NOSIG RMK OBS 800FT-WIND 130/24KT
過去の天気等 Google飛行場航空写真 Wunderground天気予報

過去48時間のMETAR

飛行場予報(TAF)
発表時間: 2/28 01:22 IST (2/27 23:22 UTC)
予報対象時間: 28日2時 IST ~ 1日2時 IST
風向・風速不定 2m/s
視程10km以上
なし
28日4時 IST から
風向・風速南西 3m/s
視程4,000m
天気現象もや
全天の4割程度の雲 雲底高度 150m
28日5時 IST ~ 28日8時 IST に一時的に
視程1,000m
天気現象
全天の8割程度の雲 雲底高度 90m
28日9時 IST ~ 28日11時 IST に徐々に
風向・風速北東 4m/s
視程8,000m
天気現象運行に影響にある天気現象が終了
なし
28日11時 IST から 確率 40% で
視程10km以上
天気現象弱い雨
全天の8割程度の雲 雲底高度 2,440m
28日22時 IST から 確率 40% で
風向・風速東南東 3m/s
視程7,000m
天気現象周辺で雷
少しの積乱雲 雲底高度 2,130m
全天の8割程度の雲 雲底高度 2,440m
TAF LLBG 272322Z 2800/2824 VRB03KT CAVOK
FM280200 22005KT 4000 BR SCT005
TEMPO 2803/2806 1000 FG BKN003
BECMG 2807/2809 05008KT 8000 NSW NSC
PROB40 2809/2820 9999 -RA BKN080
PROB40 2820/2824 11005KT 7000 VCTS FEW070CB BKN080 TX27/2812Z TN12/2804Z